Time;durP1;ratioP1;P1;durP2;ratioP2;P2;SDS_P1;SDS_P2;PMS_P1;PMS_P2;Temp;Humidity;BMP_temperature;BMP_pressure;BME280_temperature;BME280_humidity;BME280_pressure;Samples;Min_cycle;Max_cycle;Signal;HPM_P1;HPM_P2
2024/01/11 00:01:45;;;;;;;;;;;;;;;-1.65;53.57;98991.91;5103567;28;19919;-55
2024/01/11 00:04:33;;;;;;;;;;;;;;;-1.71;54.06;98992.69;5104684;28;19920;-56
2024/01/11 00:07:23;;;;;;;;;;;;;;;-1.83;54.55;98998.84;5091327;28;19968;-55
2024/01/11 00:10:11;;;;;;;;;;;;;;;-1.86;53.96;99000.09;5107653;28;20442;-56
2024/01/11 00:12:59;;;;;;;;;;;;;;;-2.04;55.13;99010.50;5099653;28;19959;-55
2024/01/11 00:15:47;;;;;;;;;;;;;;;-1.90;54.63;99001.53;5100426;28;19961;-56
2024/01/11 00:18:35;;;;;;;;;;;;;;;-2.01;54.84;98996.81;5092386;28;19932;-55
2024/01/11 00:21:23;;;;;;;;;;;;;;;-1.97;54.16;99008.66;5100225;28;20010;-57
2024/01/11 00:24:12;;;;;;;;;;;;;;;-2.00;55.12;99009.91;5104894;28;19920;-57
2024/01/11 00:27:00;;;;;;;;;;;;;;;-1.98;55.01;99009.69;5107000;28;19919;-55
2024/01/11 00:29:50;;;;;;;;;;;;;;;-1.81;54.45;99007.44;5114872;28;19920;-54
2024/01/11 00:32:41;;;;;;;;;;;;;;;-1.96;54.69;99005.00;5103101;28;20336;-55
2024/01/11 00:35:30;;;;;;;;;;;;;;;-2.00;54.32;99006.44;5105755;28;20322;-55
2024/01/11 00:38:18;;;;;;;;;;;;;;;-1.86;54.37;99006.25;5109646;28;19932;-54
2024/01/11 00:41:07;;;;;;;;;;;;;;;-2.00;54.54;99004.59;5105240;28;20409;-53
2024/01/11 00:43:56;;;;;;;;;;;;;;;-2.05;54.78;99007.03;5031720;27;2036751;-55
2024/01/11 00:46:44;;;;;;;;;;;;;;;-2.02;54.35;99008.50;5109246;28;19972;-55
2024/01/11 00:49:32;;;;;;;;;;;;;;;-1.94;54.80;99010.94;5106987;27;19943;-57
2024/01/11 00:52:20;;;;;;;;;;;;;;;-1.99;54.85;99010.72;5108340;27;19919;-58
2024/01/11 00:55:08;;;;;;;;;;;;;;;-2.16;55.11;99013.78;5098465;27;19977;-55
2024/01/11 00:57:57;;;;;;;;;;;;;;;-2.11;55.01;99014.00;5104988;28;19927;-54
2024/01/11 01:00:45;;;;;;;;;;;;;;;-2.27;55.51;99017.03;5103985;28;20380;-56
2024/01/11 01:03:33;;;;;;;;;;;;;;;-2.21;55.06;99023.38;5101772;28;19926;-56
2024/01/11 01:06:21;;;;;;;;;;;;;;;-2.05;54.96;99016.88;5105130;27;19920;-56
2024/01/11 01:09:09;;;;;;;;;;;;;;;-2.06;54.38;99026.69;5098702;28;19964;-56
2024/01/11 01:11:57;;;;;;;;;;;;;;;-2.09;54.92;99023.59;5105717;28;19948;-56
2024/01/11 01:14:46;;;;;;;;;;;;;;;-2.07;54.71;99018.94;5104606;28;20014;-56
2024/01/11 01:17:35;;;;;;;;;;;;;;;-1.97;54.58;99020.16;5098577;28;19921;-57
2024/01/11 01:20:23;;;;;;;;;;;;;;;-2.17;54.61;99009.47;5103770;28;19936;-56
2024/01/11 01:23:12;;;;;;;;;;;;;;;-2.05;54.17;99015.03;5104067;28;19999;-55
2024/01/11 01:26:00;;;;;;;;;;;;;;;-2.19;54.76;99022.16;5105755;27;20268;-55
2024/01/11 01:28:50;;;;;;;;;;;;;;;-2.20;54.78;99017.84;5114927;27;19962;-55
2024/01/11 01:31:39;;;;;;;;;;;;;;;-2.26;54.91;99009.88;5102356;28;20014;-54
2024/01/11 01:34:27;;;;;;;;;;;;;;;-1.97;54.30;99024.66;5110098;27;19926;-57
2024/01/11 01:37:15;;;;;;;;;;;;;;;-1.98;54.09;99023.00;5104740;28;20375;-57
2024/01/11 01:40:05;;;;;;;;;;;;;;;-2.14;54.57;99018.88;5105918;27;19919;-56
2024/01/11 01:42:58;;;;;;;;;;;;;;;-2.03;54.58;99028.94;5105493;27;20004;-54
2024/01/11 01:45:46;;;;;;;;;;;;;;;-2.20;54.76;99022.38;5105082;27;20052;-54
2024/01/11 01:48:36;;;;;;;;;;;;;;;-1.88;53.88;99021.59;5103713;27;19927;-54
2024/01/11 01:51:26;;;;;;;;;;;;;;;-2.03;54.08;99020.94;5101280;27;19931;-55
2024/01/11 01:54:14;;;;;;;;;;;;;;;-2.02;54.30;99021.81;5109941;27;19926;-57
2024/01/11 01:57:02;;;;;;;;;;;;;;;-2.03;54.86;99020.13;5105818;28;20309;-55
2024/01/11 01:59:50;;;;;;;;;;;;;;;-2.07;54.64;99021.59;5097093;27;19960;-53
2024/01/11 02:02:38;;;;;;;;;;;;;;;-2.09;54.33;99020.94;5103921;27;20072;-57
2024/01/11 02:05:28;;;;;;;;;;;;;;;-2.07;54.19;99021.59;5100255;27;19920;-55
2024/01/11 02:08:16;;;;;;;;;;;;;;;-2.10;54.55;99020.13;5101485;27;19927;-54
2024/01/11 02:11:04;;;;;;;;;;;;;;;-2.18;54.98;99023.81;5100531;27;19927;-55
2024/01/11 02:13:54;;;;;;;;;;;;;;;-2.35;55.21;99022.53;5106218;27;19924;-55
2024/01/11 02:16:42;;;;;;;;;;;;;;;-2.27;55.26;99016.22;5098412;28;19920;-55
2024/01/11 02:19:30;;;;;;;;;;;;;;;-2.14;55.32;99013.56;5106124;27;20536;-55
2024/01/11 02:22:22;;;;;;;;;;;;;;;-2.27;55.00;99011.72;5104452;27;20018;-55
2024/01/11 02:25:11;;;;;;;;;;;;;;;-2.43;55.39;99009.41;5105306;27;20254;-55
2024/01/11 02:27:59;;;;;;;;;;;;;;;-2.29;55.76;99010.25;5106093;27;20289;-57
2024/01/11 02:30:47;;;;;;;;;;;;;;;-2.08;54.90;99011.94;5104151;28;20006;-57
2024/01/11 02:33:35;;;;;;;;;;;;;;;-2.02;54.83;99013.81;5111031;28;20332;-57
2024/01/11 02:36:23;;;;;;;;;;;;;;;-2.08;55.04;99012.75;5105258;28;20423;-58
2024/01/11 02:39:11;;;;;;;;;;;;;;;-2.04;54.94;99010.50;5105628;28;19930;-56
2024/01/11 02:42:01;;;;;;;;;;;;;;;-1.97;55.23;99008.66;5101906;28;19923;-56
2024/01/11 02:44:49;;;;;;;;;;;;;;;-2.46;56.29;99004.47;5105300;28;20364;-55
2024/01/11 02:47:37;;;;;;;;;;;;;;;-2.50;56.67;99012.06;5111411;28;19920;-55
2024/01/11 02:50:26;;;;;;;;;;;;;;;-2.48;56.59;99015.34;5110060;28;19934;-55
2024/01/11 02:53:14;;;;;;;;;;;;;;;-2.09;55.17;99007.63;5099632;28;19927;-55
2024/01/11 02:56:02;;;;;;;;;;;;;;;-2.08;55.12;99012.75;5102092;28;19923;-56
2024/01/11 02:58:52;;;;;;;;;;;;;;;-2.20;55.69;99009.88;5100738;28;19927;-59
2024/01/11 03:01:45;;;;;;;;;;;;;;;-2.40;55.96;99004.53;5101616;28;19920;-55
2024/01/11 03:12:49;;;;;;;;;;;;;;;-2.01;54.73;99002.94;5102241;28;19923;-55
2024/01/11 03:15:38;;;;;;;;;;;;;;;-2.14;54.53;99003.72;5095157;28;19932;-54
2024/01/11 03:18:26;;;;;;;;;;;;;;;-2.40;55.82;99014.31;5102827;28;20250;-55
2024/01/11 03:21:15;;;;;;;;;;;;;;;-2.39;55.55;99005.34;5103180;28;19926;-55
2024/01/11 03:24:03;;;;;;;;;;;;;;;-2.29;55.25;99004.94;5106092;28;20471;-54
2024/01/11 03:26:51;;;;;;;;;;;;;;;-2.18;54.83;99002.53;5098191;28;20006;-55
2024/01/11 03:29:39;;;;;;;;;;;;;;;-2.39;55.02;98998.19;5099652;28;19923;-56
2024/01/11 03:32:36;;;;;;;;;;;;;;;-2.80;56.22;98995.59;5099559;28;20628;-55
2024/01/11 03:35:24;;;;;;;;;;;;;;;-2.70;56.12;99000.53;5108065;27;19923;-56
2024/01/11 03:38:13;;;;;;;;;;;;;;;-2.56;55.88;98993.41;5105559;27;19982;-55
2024/01/11 03:41:01;;;;;;;;;;;;;;;-2.54;55.43;98991.38;5103402;27;20496;-55
2024/01/11 03:43:50;;;;;;;;;;;;;;;-2.29;54.84;98988.97;5106698;27;19920;-54
2024/01/11 03:46:38;;;;;;;;;;;;;;;-2.26;54.55;98984.06;5104225;28;20014;-54
2024/01/11 03:49:27;;;;;;;;;;;;;;;-2.34;54.59;98986.94;5107538;28;20268;-56
2024/01/11 03:52:15;;;;;;;;;;;;;;;-2.40;55.38;98979.72;5104758;28;19928;-56
2024/01/11 03:55:04;;;;;;;;;;;;;;;-2.39;54.91;98973.41;5107255;27;20811;-55
2024/01/11 03:57:52;;;;;;;;;;;;;;;-2.37;55.21;98974.00;5104392;27;20061;-56
2024/01/11 04:00:40;;;;;;;;;;;;;;;-2.43;55.13;98977.47;5103097;28;20383;-55
2024/01/11 04:03:28;;;;;;;;;;;;;;;-2.60;56.13;98981.53;5105510;28;19926;-54
2024/01/11 04:06:22;;;;;;;;;;;;;;;-2.45;55.82;98979.50;5108597;27;20002;-54
2024/01/11 04:09:10;;;;;;;;;;;;;;;-2.74;55.77;98992.13;5101066;27;19943;-54
2024/01/11 04:11:59;;;;;;;;;;;;;;;-2.54;55.63;98983.41;5105563;28;19919;-56
2024/01/11 04:14:47;;;;;;;;;;;;;;;-2.48;55.29;98991.38;5101554;28;20385;-55
2024/01/11 04:17:35;;;;;;;;;;;;;;;-2.84;56.16;98996.16;5107028;27;19919;-57
2024/01/11 04:20:24;;;;;;;;;;;;;;;-2.88;55.74;98993.06;5093720;28;19923;-55
2024/01/11 04:23:13;;;;;;;;;;;;;;;-2.56;55.24;98990.75;5103846;27;20049;-58
2024/01/11 04:26:01;;;;;;;;;;;;;;;-2.66;55.66;98994.63;5102004;28;19927;-57
2024/01/11 04:28:50;;;;;;;;;;;;;;;-2.68;55.47;98999.31;5106982;28;19932;-54
2024/01/11 04:31:38;;;;;;;;;;;;;;;-2.59;55.46;98999.13;5110813;28;20384;-55
2024/01/11 04:34:26;;;;;;;;;;;;;;;-2.42;54.58;99000.41;5109545;28;20420;-56
2024/01/11 04:37:15;;;;;;;;;;;;;;;-2.47;54.42;98994.88;5104828;27;20072;-54
2024/01/11 04:40:05;;;;;;;;;;;;;;;-2.49;54.82;98996.91;5099121;28;20056;-54
2024/01/11 04:42:54;;;;;;;;;;;;;;;-2.46;54.65;99004.47;5101482;28;19988;-53
2024/01/11 04:45:42;;;;;;;;;;;;;;;-2.56;54.47;99007.53;5104797;27;19931;-53
2024/01/11 04:48:30;;;;;;;;;;;;;;;-2.94;55.48;99020.47;5106747;28;19927;-54
2024/01/11 04:51:19;;;;;;;;;;;;;;;-2.91;56.37;99017.41;5105115;28;20296;-53
2024/01/11 04:54:07;;;;;;;;;;;;;;;-2.82;55.95;99026.88;5104850;28;20377;-54
2024/01/11 04:56:56;;;;;;;;;;;;;;;-2.92;56.53;99026.44;5103752;27;19920;-54
2024/01/11 04:59:44;;;;;;;;;;;;;;;-2.96;56.11;99022.50;5099207;27;20618;-58
2024/01/11 05:02:32;;;;;;;;;;;;;;;-2.79;56.29;99018.50;5104857;28;19920;-55
2024/01/11 05:05:21;;;;;;;;;;;;;;;-2.79;56.00;99023.00;5111716;28;19950;-53
2024/01/11 05:08:09;;;;;;;;;;;;;;;-3.06;56.16;99027.34;5111066;28;19932;-54
2024/01/11 05:10:57;;;;;;;;;;;;;;;-2.91;56.21;99022.75;5115769;27;19981;-55
2024/01/11 05:13:47;;;;;;;;;;;;;;;-2.60;55.30;99024.94;5103371;28;20012;-54
2024/01/11 05:16:36;;;;;;;;;;;;;;;-2.47;54.92;99011.66;5100433;28;19920;-53
2024/01/11 05:19:24;;;;;;;;;;;;;;;-2.59;55.32;99017.75;5105378;27;19924;-53
2024/01/11 05:22:18;;;;;;;;;;;;;;;-2.64;55.97;99010.38;5090961;28;19965;-54
2024/01/11 05:25:07;;;;;;;;;;;;;;;-2.64;56.19;99011.19;5102922;28;19927;-55
2024/01/11 05:27:55;;;;;;;;;;;;;;;-2.77;56.17;99012.97;5106465;27;19942;-54
2024/01/11 05:30:44;;;;;;;;;;;;;;;-2.93;56.76;99022.94;5108277;27;19920;-54
2024/01/11 05:33:33;;;;;;;;;;;;;;;-3.00;57.82;99024.72;5097466;28;19920;-59
2024/01/11 05:36:21;;;;;;;;;;;;;;;-2.38;56.19;99014.97;5105896;28;19919;-52
2024/01/11 05:39:09;;;;;;;;;;;;;;;-2.31;55.56;99018.44;5095127;28;19985;-54
2024/01/11 05:41:57;;;;;;;;;;;;;;;-2.54;56.55;99021.47;5098875;27;19935;-54
2024/01/11 05:44:45;;;;;;;;;;;;;;;-2.36;55.59;99012.91;5099555;28;20825;-57
2024/01/11 05:47:34;;;;;;;;;;;;;;;-2.30;55.41;99016.59;5098723;28;20447;-53
2024/01/11 05:50:23;;;;;;;;;;;;;;;-2.34;55.54;99018.88;5103624;27;19919;-55
2024/01/11 05:53:11;;;;;;;;;;;;;;;-2.31;55.93;99030.94;5101533;28;19951;-54
2024/01/11 05:55:59;;;;;;;;;;;;;;;-2.42;55.71;99022.50;5096183;28;20276;-56
2024/01/11 05:58:47;;;;;;;;;;;;;;;-2.55;55.94;99021.66;5100320;28;19919;-53
2024/01/11 06:01:41;;;;;;;;;;;;;;;-2.38;55.65;99022.94;5106224;28;19920;-57
2024/01/11 06:04:31;;;;;;;;;;;;;;;-2.25;55.18;99020.31;5105067;28;19926;-54
2024/01/11 06:07:22;;;;;;;;;;;;;;;-2.31;55.59;99023.78;5099557;28;19919;-55
2024/01/11 06:10:35;;;;;;;;;;;;;;;-2.31;55.44;99018.44;5103011;28;19928;-55
2024/01/11 06:13:26;;;;;;;;;;;;;;;-2.39;55.80;99034.63;5097509;28;19952;-60
2024/01/11 06:16:14;;;;;;;;;;;;;;;-2.46;57.07;99031.91;5105225;27;19924;-57
2024/01/11 06:19:03;;;;;;;;;;;;;;;-2.30;56.37;99029.91;5096771;27;20006;-54
2024/01/11 06:21:54;;;;;;;;;;;;;;;-2.41;56.73;99041.97;5099989;28;20007;-54
2024/01/11 06:24:41;;;;;;;;;;;;;;;-2.29;56.23;99037.72;5097758;28;19927;-55
2024/01/11 06:27:33;;;;;;;;;;;;;;;-2.25;56.15;99028.28;5108360;28;19927;-54
2024/01/11 06:30:21;;;;;;;;;;;;;;;-2.11;55.23;99029.97;5106229;28;19919;-55
2024/01/11 06:33:09;;;;;;;;;;;;;;;-2.19;55.36;99043.44;5104624;28;20298;-55
2024/01/11 06:35:57;;;;;;;;;;;;;;;-2.37;55.73;99059.19;5108906;28;20432;-54
2024/01/11 06:38:47;;;;;;;;;;;;;;;-2.18;55.53;99050.44;5103337;28;19928;-56
2024/01/11 06:41:35;;;;;;;;;;;;;;;-1.96;54.83;99063.59;5107021;28;19931;-54
2024/01/11 06:44:23;;;;;;;;;;;;;;;-2.71;57.20;99082.16;5101635;28;20334;-55
2024/01/11 06:47:11;;;;;;;;;;;;;;;-2.64;56.47;99087.53;5100266;28;20304;-56
2024/01/11 06:49:59;;;;;;;;;;;;;;;-2.54;56.18;99089.81;5100367;28;20414;-54
2024/01/11 06:52:48;;;;;;;;;;;;;;;-2.43;55.33;99087.41;5103241;28;19920;-55
2024/01/11 06:55:37;;;;;;;;;;;;;;;-2.88;56.82;99088.81;5101331;28;20269;-53
2024/01/11 06:58:25;;;;;;;;;;;;;;;-2.76;56.49;99087.25;5107662;28;20269;-55
2024/01/11 07:01:14;;;;;;;;;;;;;;;-2.71;56.12;99094.66;5096935;28;20020;-55
2024/01/11 07:04:02;;;;;;;;;;;;;;;-2.52;55.26;99090.44;5102296;28;19920;-54
2024/01/11 07:06:50;;;;;;;;;;;;;;;-2.83;56.19;99088.22;5087653;28;19920;-56
2024/01/11 07:09:39;;;;;;;;;;;;;;;-2.85;56.21;99092.94;5113576;27;19977;-56
2024/01/11 07:12:29;;;;;;;;;;;;;;;-2.92;55.96;99095.56;5103231;28;19926;-54
2024/01/11 07:15:17;;;;;;;;;;;;;;;-2.61;55.25;99075.66;5102641;27;20441;-54
2024/01/11 07:18:05;;;;;;;;;;;;;;;-2.56;54.89;99078.53;5105234;28;19920;-54
2024/01/11 07:20:53;;;;;;;;;;;;;;;-2.58;55.42;99093.88;5098444;28;20476;-54
2024/01/11 07:23:41;;;;;;;;;;;;;;;-2.95;56.54;99099.41;5106212;28;19919;-54
2024/01/11 07:26:30;;;;;;;;;;;;;;;-2.59;54.70;99101.06;5109781;28;19920;-55
2024/01/11 07:29:19;;;;;;;;;;;;;;;-2.61;54.65;99094.28;5105691;27;19919;-55
2024/01/11 07:32:07;;;;;;;;;;;;;;;-2.71;54.78;99097.31;5113049;27;19959;-55
2024/01/11 07:34:55;;;;;;;;;;;;;;;-2.52;54.86;99095.75;5101621;27;19926;-55
2024/01/11 07:37:43;;;;;;;;;;;;;;;-2.40;53.79;99105.66;5097901;27;19920;-54
2024/01/11 07:40:31;;;;;;;;;;;;;;;-2.50;54.48;99123.00;5107984;27;19919;-54
2024/01/11 07:43:22;;;;;;;;;;;;;;;-2.54;54.51;99108.44;5112107;27;19942;-54
2024/01/11 07:46:13;;;;;;;;;;;;;;;-2.64;55.13;99114.94;5099452;27;19929;-55
2024/01/11 07:49:01;;;;;;;;;;;;;;;-2.91;55.53;99124.59;5104219;27;19919;-59
2024/01/11 07:51:49;;;;;;;;;;;;;;;-2.47;54.68;99135.91;5115972;27;19926;-56
2024/01/11 07:54:37;;;;;;;;;;;;;;;-2.41;54.27;99124.47;5111753;27;19931;-56
2024/01/11 07:57:26;;;;;;;;;;;;;;;-3.00;56.13;99127.59;5107730;27;19923;-54
2024/01/11 08:00:14;;;;;;;;;;;;;;;-2.76;55.39;99131.66;5104468;28;20089;-54
2024/01/11 08:03:04;;;;;;;;;;;;;;;-2.66;55.20;99127.63;5106451;27;20013;-55
2024/01/11 08:05:52;;;;;;;;;;;;;;;-2.80;56.06;99147.19;5102656;28;20006;-54
2024/01/11 08:08:41;;;;;;;;;;;;;;;-2.75;55.96;99144.75;5102683;28;20033;-55
2024/01/11 08:11:29;;;;;;;;;;;;;;;-2.42;54.59;99144.94;5102714;28;19924;-56
2024/01/11 08:14:18;;;;;;;;;;;;;;;-2.33;54.49;99142.94;5106292;28;20273;-55
2024/01/11 08:17:07;;;;;;;;;;;;;;;-2.95;55.27;99143.78;5107339;28;19980;-54
2024/01/11 08:19:56;;;;;;;;;;;;;;;-2.76;55.41;99148.44;5108177;28;19920;-57
2024/01/11 08:22:45;;;;;;;;;;;;;;;-2.79;55.86;99146.16;5078020;28;19926;-54
2024/01/11 08:25:34;;;;;;;;;;;;;;;-2.68;55.68;99152.75;5102738;28;19920;-55
2024/01/11 08:28:22;;;;;;;;;;;;;;;-2.74;56.26;99146.38;5101583;28;20042;-54
2024/01/11 08:31:10;;;;;;;;;;;;;;;-2.84;55.64;99140.59;5092765;28;19955;-55
2024/01/11 08:33:58;;;;;;;;;;;;;;;-2.25;54.36;99133.94;5105537;27;20315;-55
2024/01/11 08:36:48;;;;;;;;;;;;;;;-2.98;55.89;99130.91;5104387;28;20045;-55
2024/01/11 08:39:36;;;;;;;;;;;;;;;-2.76;55.63;99127.16;5109393;27;19970;-55
2024/01/11 08:42:24;;;;;;;;;;;;;;;-2.65;55.61;99129.25;5099140;28;19968;-55
2024/01/11 08:45:17;;;;;;;;;;;;;;;-2.74;56.31;99117.13;5105856;28;19920;-56
2024/01/11 08:48:06;;;;;;;;;;;;;;;-2.74;56.88;99105.66;5100357;28;19928;-55
2024/01/11 08:50:54;;;;;;;;;;;;;;;-2.48;55.75;99105.00;5109397;28;19919;-55
2024/01/11 08:53:44;;;;;;;;;;;;;;;-2.33;55.21;99094.22;5092290;28;20012;-55
2024/01/11 08:56:32;;;;;;;;;;;;;;;-2.24;55.46;99093.00;5106284;28;20376;-56
2024/01/11 08:59:24;;;;;;;;;;;;;;;-2.21;55.87;99104.06;5105982;28;19920;-55
2024/01/11 09:02:13;;;;;;;;;;;;;;;-2.10;56.19;99086.69;5110645;27;19928;-56
2024/01/11 09:05:07;;;;;;;;;;;;;;;-1.99;56.10;99074.63;5105984;27;19977;-55
2024/01/11 09:07:56;;;;;;;;;;;;;;;-1.95;55.68;99068.72;5105177;27;19927;-55
2024/01/11 09:10:45;;;;;;;;;;;;;;;-1.83;55.41;99079.59;5102708;27;19924;-55
2024/01/11 09:13:34;;;;;;;;;;;;;;;-2.09;56.42;99092.84;5110751;27;19926;-55
2024/01/11 09:16:22;;;;;;;;;;;;;;;-2.00;56.22;99100.44;5114258;27;20010;-56
2024/01/11 09:19:10;;;;;;;;;;;;;;;-1.85;55.75;99098.44;5112877;27;19920;-56
2024/01/11 09:21:58;;;;;;;;;;;;;;;-1.81;55.72;99100.69;5109144;27;19920;-55
2024/01/11 09:24:46;;;;;;;;;;;;;;;-1.77;55.19;99094.75;5104068;27;19924;-55
2024/01/11 09:27:36;;;;;;;;;;;;;;;-1.76;55.68;99084.91;5097646;28;19924;-55
2024/01/11 09:30:24;;;;;;;;;;;;;;;-1.54;55.69;99091.72;5105038;27;19920;-55
2024/01/11 09:33:12;;;;;;;;;;;;;;;-1.69;55.59;99112.41;5105506;27;19919;-56
2024/01/11 09:36:04;;;;;;;;;;;;;;;-1.91;55.95;99114.41;5108808;27;20068;-55
2024/01/11 09:38:53;;;;;;;;;;;;;;;-2.01;56.54;99135.28;5096667;28;20024;-56
2024/01/11 09:41:43;;;;;;;;;;;;;;;-2.02;56.04;99133.63;5091719;27;19920;-55
2024/01/11 09:44:39;;;;;;;;;;;;;;;-1.78;55.69;99145.56;5111597;27;19920;-54
2024/01/11 09:47:27;;;;;;;;;;;;;;;-1.90;55.86;99143.50;5106873;27;19971;-59
2024/01/11 09:50:17;;;;;;;;;;;;;;;-1.78;55.35;99130.41;5107575;28;20425;-54
2024/01/11 09:53:06;;;;;;;;;;;;;;;-2.21;56.55;99125.38;5109091;28;20269;-58
2024/01/11 09:55:54;;;;;;;;;;;;;;;-2.09;56.16;99114.13;5106361;28;19920;-61
2024/01/11 09:58:43;;;;;;;;;;;;;;;-1.78;55.71;99097.63;5096041;28;19928;-55
2024/01/11 10:01:37;;;;;;;;;;;;;;;-1.36;54.97;99091.91;5098610;27;20357;-55
2024/01/11 10:04:25;;;;;;;;;;;;;;;-1.83;55.75;99100.88;5096115;28;20438;-54
2024/01/11 10:07:15;;;;;;;;;;;;;;;-1.45;55.01;99098.47;5098875;28;20369;-54
2024/01/11 10:10:03;;;;;;;;;;;;;;;-1.18;54.52;99103.78;5104187;28;19920;-55
2024/01/11 10:12:52;;;;;;;;;;;;;;;-1.41;54.52;99118.38;5097464;28;20007;-55
2024/01/11 10:15:40;;;;;;;;;;;;;;;-1.37;54.74;99121.44;5097710;28;19923;-55
2024/01/11 10:18:29;;;;;;;;;;;;;;;-1.16;54.03;99137.25;5107602;28;19920;-55
2024/01/11 10:21:18;;;;;;;;;;;;;;;-1.18;53.82;99141.94;5107097;28;20029;-55
2024/01/11 10:24:08;;;;;;;;;;;;;;;-1.35;54.52;99136.19;5101003;28;20060;-59
2024/01/11 10:26:56;;;;;;;;;;;;;;;-1.31;54.80;99147.28;5105800;27;19926;-56
2024/01/11 10:29:44;;;;;;;;;;;;;;;-1.26;54.99;99136.03;5094482;27;20048;-55
2024/01/11 10:32:34;;;;;;;;;;;;;;;-0.88;54.08;99141.53;5103839;27;19979;-57
2024/01/11 10:35:24;;;;;;;;;;;;;;;-0.92;53.75;99130.44;5107496;27;19919;-56
2024/01/11 10:38:13;;;;;;;;;;;;;;;-0.74;53.09;99121.81;5104639;28;19926;-56
2024/01/11 10:41:02;;;;;;;;;;;;;;;-0.52;52.26;99118.88;5105367;28;20400;-56
2024/01/11 10:43:50;;;;;;;;;;;;;;;-0.92;53.13;99109.09;5110146;27;20031;-56
2024/01/11 10:46:40;;;;;;;;;;;;;;;-0.73;53.32;99099.44;5106895;28;19946;-57
2024/01/11 10:49:29;;;;;;;;;;;;;;;-0.72;52.86;99101.06;5115182;27;20077;-55
2024/01/11 10:52:19;;;;;;;;;;;;;;;-0.63;53.14;99099.81;5114246;28;20405;-56
2024/01/11 10:55:08;;;;;;;;;;;;;;;-0.34;52.56;99095.81;5108347;28;20016;-57
2024/01/11 10:57:56;;;;;;;;;;;;;;;-0.22;52.20;99093.28;5103083;28;19932;-59
2024/01/11 11:00:44;;;;;;;;;;;;;;;-0.67;53.18;99097.78;5112682;28;19935;-56
2024/01/11 11:03:32;;;;;;;;;;;;;;;-0.36;52.79;99091.72;5104874;28;20396;-55
2024/01/11 11:06:20;;;;;;;;;;;;;;;-0.41;52.64;99091.53;5112626;27;20399;-55
2024/01/11 11:09:10;;;;;;;;;;;;;;;-0.14;51.31;99085.03;5092459;28;19919;-57
2024/01/11 11:11:59;;;;;;;;;;;;;;;-0.44;51.85;99081.25;5103852;28;19928;-56
2024/01/11 11:14:47;;;;;;;;;;;;;;;-0.19;51.57;99090.19;5107326;27;20306;-60
2024/01/11 11:17:35;;;;;;;;;;;;;;;-0.42;51.57;99087.22;5114408;27;19919;-56
2024/01/11 11:20:23;;;;;;;;;;;;;;;-0.20;52.06;99091.25;5113357;27;20057;-55
2024/01/11 11:23:14;;;;;;;;;;;;;;;-0.10;51.83;99077.44;5111983;27;20383;-60
2024/01/11 11:26:06;;;;;;;;;;;;;;;-0.19;51.74;99081.38;5109455;28;19931;-55
2024/01/11 11:28:54;;;;;;;;;;;;;;;0.01;51.32;99070.59;5108784;28;19975;-58
2024/01/11 11:31:42;;;;;;;;;;;;;;;-0.14;51.77;99053.00;5114846;27;20268;-55
2024/01/11 11:34:44;;;;;;;;;;;;;;;0.06;51.90;99060.06;5114162;28;19946;-55
2024/01/11 11:37:33;;;;;;;;;;;;;;;0.11;51.27;99049.56;5117648;27;19932;-55
2024/01/11 11:40:21;;;;;;;;;;;;;;;0.02;51.60;99050.84;5106343;27;19920;-55
2024/01/11 11:43:11;;;;;;;;;;;;;;;0.10;51.62;99064.75;5111178;27;20028;-56
2024/01/11 11:46:03;;;;;;;;;;;;;;;-0.01;51.92;99079.63;5106337;27;19927;-55
2024/01/11 11:48:52;;;;;;;;;;;;;;;0.04;51.65;99078.97;5101073;28;20051;-55
2024/01/11 11:51:41;;;;;;;;;;;;;;;0.14;51.38;99070.50;5099635;27;19927;-57
2024/01/11 11:54:29;;;;;;;;;;;;;;;0.41;50.72;99071.94;5102127;27;19920;-56
2024/01/11 11:57:17;;;;;;;;;;;;;;;0.53;50.38;99069.38;5108533;27;19970;-55
2024/01/11 12:00:08;;;;;;;;;;;;;;;0.34;50.25;99065.03;5104196;28;19968;-55
2024/01/11 12:02:58;;;;;;;;;;;;;;;0.16;50.97;99068.41;5102595;28;19928;-56
2024/01/11 12:05:46;;;;;;;;;;;;;;;0.44;50.83;99060.84;5105475;28;19931;-57
2024/01/11 12:08:35;;;;;;;;;;;;;;;0.37;50.45;99049.34;5106188;28;19942;-56
2024/01/11 12:11:23;;;;;;;;;;;;;;;0.45;50.50;99050.94;5099259;28;20469;-56
2024/01/11 12:14:12;;;;;;;;;;;;;;;0.44;50.26;99054.66;5104002;28;19924;-57
2024/01/11 12:17:01;;;;;;;;;;;;;;;0.34;50.67;99036.44;5105365;28;19972;-56
2024/01/11 12:19:49;;;;;;;;;;;;;;;0.66;50.22;99041.72;5101796;27;19928;-56
2024/01/11 12:22:38;;;;;;;;;;;;;;;0.78;49.41;99038.09;5102777;27;20064;-57
2024/01/11 12:25:26;;;;;;;;;;;;;;;0.70;50.20;99032.25;5105154;27;19943;-57
2024/01/11 12:28:14;;;;;;;;;;;;;;;0.76;49.92;99044.72;5104486;28;20011;-56
2024/01/11 12:31:03;;;;;;;;;;;;;;;0.78;49.47;99045.31;5107431;28;19930;-56
2024/01/11 12:33:53;;;;;;;;;;;;;;;0.77;49.77;99038.34;5110600;28;20383;-56
2024/01/11 12:36:41;;;;;;;;;;;;;;;0.88;49.47;99034.13;5107461;28;19981;-56
2024/01/11 12:39:29;;;;;;;;;;;;;;;0.93;49.28;99026.25;5107649;27;20353;-56
2024/01/11 12:42:17;;;;;;;;;;;;;;;0.89;49.45;99019.69;5108511;28;19927;-56
2024/01/11 12:45:06;;;;;;;;;;;;;;;0.92;49.43;99019.25;5108816;28;19931;-56
2024/01/11 12:47:54;;;;;;;;;;;;;;;0.96;49.64;99013.25;5109625;28;21198;-55
2024/01/11 12:50:44;;;;;;;;;;;;;;;0.97;49.49;99006.84;5109021;28;19930;-56
2024/01/11 12:53:33;;;;;;;;;;;;;;;0.93;49.75;99004.84;5107604;28;19923;-55
2024/01/11 12:56:22;;;;;;;;;;;;;;;0.99;49.22;99002.09;5108762;28;20028;-55
2024/01/11 12:59:12;;;;;;;;;;;;;;;1.11;49.40;99007.50;5109013;28;19923;-55
2024/01/11 13:02:00;;;;;;;;;;;;;;;1.13;49.02;99012.66;5105275;28;19927;-57
2024/01/11 13:04:48;;;;;;;;;;;;;;;1.05;49.41;99011.91;5096169;28;19942;-57
2024/01/11 13:07:38;;;;;;;;;;;;;;;1.07;49.27;99014.38;5105849;28;20281;-57
2024/01/11 13:10:27;;;;;;;;;;;;;;;1.16;49.12;99021.03;5106089;27;20325;-55
2024/01/11 13:13:15;;;;;;;;;;;;;;;1.11;49.12;99017.41;5108624;28;19923;-56
2024/01/11 13:16:10;;;;;;;;;;;;;;;1.17;48.70;99008.47;5106111;27;20010;-55
2024/01/11 13:18:58;;;;;;;;;;;;;;;1.23;48.53;99000.38;5101595;27;19927;-55
2024/01/11 13:21:47;;;;;;;;;;;;;;;1.25;48.64;98989.44;5106850;27;19967;-56
2024/01/11 13:24:36;;;;;;;;;;;;;;;1.19;48.80;98999.19;5105597;27;19982;-55
2024/01/11 13:27:24;;;;;;;;;;;;;;;1.23;48.84;98999.56;5103150;27;20140;-56
2024/01/11 13:30:13;;;;;;;;;;;;;;;1.29;48.64;99004.84;5106588;27;19931;-56
2024/01/11 13:33:01;;;;;;;;;;;;;;;1.33;48.56;99004.38;5103184;28;19919;-56
2024/01/11 13:35:50;;;;;;;;;;;;;;;1.24;49.01;99002.03;5110383;27;20342;-57
2024/01/11 13:38:38;;;;;;;;;;;;;;;1.46;48.72;98997.00;5108729;27;20319;-57
2024/01/11 13:41:27;;;;;;;;;;;;;;;1.49;48.54;98993.91;5123535;27;19926;-56
2024/01/11 13:44:15;;;;;;;;;;;;;;;1.34;49.07;98990.78;5094623;27;19920;-56
2024/01/11 13:47:04;;;;;;;;;;;;;;;1.65;48.56;98988.94;5106330;27;20489;-55
2024/01/11 13:49:52;;;;;;;;;;;;;;;1.59;48.56;98982.63;5096967;27;19943;-56
2024/01/11 13:52:41;;;;;;;;;;;;;;;1.37;49.27;98978.78;5097476;27;19920;-58
2024/01/11 13:55:37;;;;;;;;;;;;;;;1.36;49.19;98972.63;5100057;27;19932;-55
2024/01/11 13:58:27;;;;;;;;;;;;;;;1.50;49.45;98967.94;5097891;28;19920;-59
2024/01/11 14:01:16;;;;;;;;;;;;;;;1.33;49.29;98969.56;5107784;28;20023;-56
2024/01/11 14:04:04;;;;;;;;;;;;;;;1.24;49.44;98963.72;5106063;28;19920;-56
2024/01/11 14:06:52;;;;;;;;;;;;;;;1.49;49.11;98967.13;5100541;28;19939;-58
2024/01/11 14:09:41;;;;;;;;;;;;;;;1.37;49.33;98971.56;5096803;28;20326;-56
2024/01/11 14:12:29;;;;;;;;;;;;;;;1.44;49.25;98984.88;5100510;28;19943;-56
2024/01/11 14:15:18;;;;;;;;;;;;;;;1.40;48.96;99003.28;5099523;28;19958;-57
2024/01/11 14:18:07;;;;;;;;;;;;;;;1.43;48.91;99004.66;5101185;28;19934;-55
2024/01/11 14:20:56;;;;;;;;;;;;;;;1.71;48.78;98999.56;5096481;28;19963;-56
2024/01/11 14:23:44;;;;;;;;;;;;;;;1.64;48.41;99009.53;5103698;28;19920;-56
2024/01/11 14:26:32;;;;;;;;;;;;;;;1.60;48.11;99002.19;5103946;28;20004;-57
2024/01/11 14:29:21;;;;;;;;;;;;;;;1.43;48.26;99013.50;5099980;28;19969;-55
2024/01/11 14:32:11;;;;;;;;;;;;;;;1.51;48.41;99010.53;5106446;28;19959;-56
2024/01/11 14:35:09;;;;;;;;;;;;;;;1.76;47.61;99020.34;5102084;28;20541;-56
2024/01/11 14:37:57;;;;;;;;;;;;;;;1.96;47.60;99020.03;5102927;28;19985;-59
2024/01/11 14:40:45;;;;;;;;;;;;;;;1.80;47.70;99021.50;5105299;28;19939;-56
2024/01/11 14:43:33;;;;;;;;;;;;;;;1.57;48.03;99016.84;5100965;28;19920;-56
2024/01/11 14:46:21;;;;;;;;;;;;;;;1.53;48.17;99016.47;5103718;28;19920;-57
2024/01/11 14:49:11;;;;;;;;;;;;;;;1.69;47.71;99009.69;5105277;28;19923;-59